createdAt,value
2022-10-16T00:02:28.794Z,1.07
2022-10-16T00:07:29.915Z,1.07
2022-10-16T00:12:30.955Z,4.13
2022-10-16T00:17:32.668Z,2.07
2022-10-16T00:22:33.914Z,3.07
2022-10-16T00:27:35.438Z,0.80
2022-10-16T00:32:36.681Z,2.70
2022-10-16T00:37:37.805Z,1.83
2022-10-16T00:42:38.894Z,0.83
2022-10-16T00:47:45.275Z,1.20
2022-10-16T00:52:48.625Z,0.80
2022-10-16T00:57:50.404Z,3.33
2022-10-16T01:02:56.662Z,3.23
2022-10-16T01:08:13.577Z,1.33
2022-10-16T01:13:27.990Z,3.37
2022-10-16T01:18:35.233Z,2.83
2022-10-16T01:24:18.634Z,2.30
2022-10-16T01:29:39.927Z,4.87
2022-10-16T01:35:18.210Z,2.73
2022-10-16T01:40:21.847Z,2.00
2022-10-16T01:45:23.658Z,1.23
2022-10-16T01:50:26.803Z,1.33
2022-10-16T01:55:32.890Z,2.30
2022-10-16T02:00:35.073Z,3.47
2022-10-16T02:05:45.285Z,2.47
2022-10-16T02:10:46.613Z,2.50
2022-10-16T02:15:47.706Z,1.80
2022-10-16T02:20:59.732Z,1.43
2022-10-16T02:26:05.264Z,1.43
2022-10-16T02:31:11.578Z,1.80
2022-10-16T02:36:13.279Z,2.73
2022-10-16T02:41:14.821Z,2.47
2022-10-16T02:46:17.280Z,3.70
2022-10-16T02:51:18.545Z,4.70
2022-10-16T03:01:20.976Z,1.77
2022-10-16T03:06:22.242Z,3.37
2022-10-16T03:11:23.505Z,2.90
2022-10-16T03:16:24.678Z,2.50
2022-10-16T03:21:25.945Z,1.60
2022-10-16T03:26:27.190Z,2.27
2022-10-16T03:31:28.446Z,2.20
2022-10-16T03:36:29.805Z,5.00
2022-10-16T03:41:31.091Z,2.47
2022-10-16T03:46:32.452Z,2.67
2022-10-16T03:51:33.680Z,3.70
2022-10-16T03:56:35.290Z,2.70
2022-10-16T04:01:36.386Z,1.93
2022-10-16T04:06:37.605Z,3.23
2022-10-16T04:11:39.250Z,4.90
2022-10-16T04:16:40.415Z,3.70
2022-10-16T04:21:41.644Z,4.70
2022-10-16T04:26:42.866Z,2.73
2022-10-16T04:31:44.093Z,6.27
2022-10-16T04:36:48.043Z,3.00
2022-10-16T04:41:49.146Z,6.20
2022-10-16T04:46:53.318Z,2.23
2022-10-16T04:51:54.531Z,1.63
2022-10-16T04:56:55.770Z,6.03
2022-10-16T05:01:56.898Z,4.30
2022-10-16T05:06:57.945Z,5.43
2022-10-16T05:11:59.037Z,2.80
2022-10-16T05:17:00.467Z,4.17
2022-10-16T05:22:01.703Z,5.43
2022-10-16T05:27:02.976Z,2.17
2022-10-16T05:32:04.212Z,3.13
2022-10-16T05:37:05.923Z,2.17
2022-10-16T05:42:07.659Z,2.43
2022-10-16T05:47:08.718Z,5.37
2022-10-16T05:52:09.729Z,2.30
2022-10-16T05:57:11.025Z,4.47
2022-10-16T06:02:13.437Z,1.93
2022-10-16T06:07:14.486Z,4.27
2022-10-16T06:12:16.258Z,2.50
2022-10-16T06:17:17.495Z,2.90
2022-10-16T06:22:18.651Z,2.50
2022-10-16T06:27:19.693Z,3.60
2022-10-16T06:32:21.902Z,8.80
2022-10-16T06:37:23.073Z,3.53
2022-10-16T06:42:24.396Z,4.57
2022-10-16T06:47:25.794Z,3.33
2022-10-16T06:52:29.079Z,3.70
2022-10-16T06:57:30.487Z,4.03
2022-10-16T07:02:31.713Z,4.63
2022-10-16T07:07:32.790Z,3.67
2022-10-16T07:12:33.890Z,4.23
2022-10-16T07:17:35.285Z,3.97
2022-10-16T07:22:36.378Z,3.30
2022-10-16T07:32:39.404Z,4.63
2022-10-16T07:37:45.452Z,4.47
2022-10-16T07:42:46.637Z,1.83
2022-10-16T07:47:47.881Z,5.00
2022-10-16T07:52:49.006Z,3.25
2022-10-16T07:57:50.027Z,4.00
2022-10-16T08:02:51.282Z,3.72
2022-10-16T08:07:52.350Z,5.25
2022-10-16T08:12:53.897Z,5.03
2022-10-16T08:17:59.900Z,4.05
2022-10-16T08:23:01.538Z,2.97
2022-10-16T08:28:07.571Z,5.70
2022-10-16T08:33:08.724Z,4.10
2022-10-16T08:38:10.737Z,3.85
2022-10-16T08:43:25.397Z,3.85
2022-10-16T08:48:47.723Z,4.30
2022-10-16T08:53:57.955Z,7.65
2022-10-16T08:59:02.291Z,4.35
2022-10-16T09:04:26.339Z,5.53
2022-10-16T09:09:36.331Z,4.03
2022-10-16T09:14:59.339Z,4.80
2022-10-16T09:20:34.314Z,3.67
2022-10-16T09:25:36.168Z,4.45
2022-10-16T09:30:38.623Z,5.25
2022-10-16T09:35:43.443Z,5.78
2022-10-16T09:40:44.668Z,3.70
2022-10-16T09:46:01.237Z,3.15
2022-10-16T09:51:05.136Z,3.42
2022-10-16T09:56:10.320Z,3.55
2022-10-16T10:01:15.851Z,7.72
2022-10-16T10:06:25.493Z,2.35
2022-10-16T10:11:51.746Z,2.67
2022-10-16T10:17:15.654Z,3.67
2022-10-16T10:22:22.342Z,4.47
2022-10-16T10:27:52.791Z,3.65
2022-10-16T10:33:16.658Z,4.32
2022-10-16T10:38:43.367Z,2.20
2022-10-16T10:44:19.635Z,2.28
2022-10-16T10:49:36.826Z,4.47
2022-10-16T10:54:58.573Z,4.80
2022-10-16T11:00:25.007Z,3.25
2022-10-16T11:05:40.385Z,4.35
2022-10-16T11:10:47.448Z,3.05
2022-10-16T11:15:51.156Z,4.47
2022-10-16T11:21:01.011Z,5.35
2022-10-16T11:26:09.134Z,2.55
2022-10-16T11:31:48.065Z,1.88
2022-10-16T11:36:53.025Z,2.05
2022-10-16T11:42:09.891Z,2.65
2022-10-16T11:47:58.158Z,2.85
2022-10-16T11:53:22.045Z,5.70
2022-10-16T11:58:39.310Z,2.60
2022-10-16T12:03:54.010Z,2.33
2022-10-16T12:08:56.758Z,3.78
2022-10-16T12:14:13.322Z,1.98
2022-10-16T12:19:17.497Z,3.40
2022-10-16T12:24:41.986Z,2.95
2022-10-16T12:29:44.778Z,4.10
2022-10-16T12:34:47.518Z,3.88
2022-10-16T12:39:49.380Z,2.80
2022-10-16T12:44:50.982Z,2.85
2022-10-16T12:49:54.379Z,2.15
2022-10-16T12:55:00.887Z,3.85
2022-10-16T13:00:14.059Z,4.78
2022-10-16T13:05:33.531Z,1.50
2022-10-16T13:10:53.460Z,1.27
2022-10-16T13:16:07.447Z,1.88
2022-10-16T13:21:11.472Z,2.25
2022-10-16T13:26:34.406Z,3.55
2022-10-16T13:31:38.998Z,1.85
2022-10-16T13:36:46.455Z,6.00
2022-10-16T13:42:08.007Z,3.08
2022-10-16T13:47:21.126Z,2.60
2022-10-16T13:52:22.448Z,3.78
2022-10-16T13:57:27.600Z,4.68
2022-10-16T14:02:36.072Z,2.92
2022-10-16T14:07:38.402Z,1.77
2022-10-16T14:12:39.502Z,1.27
2022-10-16T14:17:44.289Z,2.53
2022-10-16T14:22:46.879Z,4.13
2022-10-16T14:27:59.585Z,5.07
2022-10-16T14:33:04.049Z,5.88
2022-10-16T14:38:06.911Z,3.22
2022-10-16T14:43:24.621Z,3.70
2022-10-16T14:48:26.097Z,4.90
2022-10-16T14:53:27.301Z,4.78
2022-10-16T14:58:28.380Z,4.78
2022-10-16T15:03:29.504Z,3.80
2022-10-16T15:08:30.741Z,3.13
2022-10-16T15:13:31.946Z,4.57
2022-10-16T15:18:33.028Z,5.25
2022-10-16T15:23:34.142Z,6.82
2022-10-16T15:28:36.309Z,4.63
2022-10-16T15:33:39.892Z,3.67
2022-10-16T15:38:41.265Z,4.20
2022-10-16T15:43:42.453Z,5.00
2022-10-16T15:48:43.676Z,4.18
2022-10-16T15:53:46.591Z,3.95
2022-10-16T15:58:47.985Z,5.90
2022-10-16T16:03:53.519Z,2.53
2022-10-16T16:08:54.878Z,2.08
2022-10-16T16:13:56.974Z,3.60
2022-10-16T16:18:58.110Z,4.80
2022-10-16T16:23:59.711Z,1.58
2022-10-16T16:29:00.876Z,5.53
2022-10-16T16:34:03.329Z,3.33
2022-10-16T16:39:04.716Z,5.05
2022-10-16T16:44:08.949Z,7.63
2022-10-16T16:49:12.170Z,1.83
2022-10-16T16:54:14.116Z,3.38
2022-10-16T16:59:20.559Z,1.48
2022-10-16T17:04:21.798Z,2.88
2022-10-16T17:09:23.615Z,5.25
2022-10-16T17:14:24.901Z,5.57
2022-10-16T17:19:25.941Z,4.72
2022-10-16T17:24:27.241Z,2.50
2022-10-16T17:29:28.578Z,3.75
2022-10-16T17:34:29.926Z,4.55
2022-10-16T17:39:31.224Z,7.72
2022-10-16T17:44:32.478Z,10.65
2022-10-16T17:49:33.670Z,4.05
2022-10-16T17:54:35.017Z,6.40
2022-10-16T17:59:36.817Z,7.68
2022-10-16T18:04:37.934Z,4.55
2022-10-16T18:09:49.513Z,4.80
2022-10-16T18:15:01.012Z,7.13
2022-10-16T18:20:06.409Z,3.97
2022-10-16T18:25:07.813Z,3.35
2022-10-16T18:30:09.275Z,6.28
2022-10-16T18:35:10.541Z,4.22
2022-10-16T18:40:11.814Z,7.53
2022-10-16T18:45:12.870Z,10.23
2022-10-16T18:50:14.179Z,7.22
2022-10-16T18:55:15.554Z,9.73
2022-10-16T19:00:16.826Z,8.63
2022-10-16T19:05:18.123Z,6.45
2022-10-16T19:10:19.257Z,8.48
2022-10-16T19:15:21.497Z,8.57
2022-10-16T19:20:22.689Z,8.32
2022-10-16T19:25:24.231Z,7.50
2022-10-16T19:30:25.346Z,10.50
2022-10-16T19:35:26.632Z,8.45
2022-10-16T19:40:27.737Z,10.68
2022-10-16T19:45:28.883Z,8.63
2022-10-16T19:50:30.042Z,9.27
2022-10-16T19:55:31.409Z,7.88
2022-10-16T20:00:32.619Z,8.27
2022-10-16T20:05:33.970Z,6.95
2022-10-16T20:10:35.050Z,8.95
2022-10-16T20:15:36.873Z,9.90
2022-10-16T20:20:39.950Z,9.80
2022-10-16T20:25:42.031Z,13.23
2022-10-16T20:30:45.708Z,12.25
2022-10-16T20:35:48.752Z,9.05
2022-10-16T20:40:49.771Z,13.93
2022-10-16T20:45:59.585Z,9.40
2022-10-16T20:51:11.166Z,9.57
2022-10-16T20:56:15.163Z,11.65
2022-10-16T21:01:22.034Z,10.93
2022-10-16T21:06:23.887Z,9.57
2022-10-16T21:11:26.863Z,10.70
2022-10-16T21:16:28.434Z,11.47
2022-10-16T21:21:31.878Z,10.03
2022-10-16T21:26:33.457Z,10.00
2022-10-16T21:31:35.359Z,9.40
2022-10-16T21:36:39.038Z,10.47
2022-10-16T21:41:41.994Z,8.68
2022-10-16T21:46:44.079Z,9.27
2022-10-16T21:51:49.814Z,11.20
2022-10-16T21:56:52.224Z,8.77
2022-10-16T22:01:53.962Z,14.90
2022-10-16T22:06:55.170Z,11.50
2022-10-16T22:11:56.425Z,10.17
2022-10-16T22:16:57.810Z,11.93
2022-10-16T22:22:00.493Z,10.33
2022-10-16T22:27:01.684Z,10.17
2022-10-16T22:32:02.982Z,9.27
2022-10-16T22:37:04.210Z,9.87
2022-10-16T22:42:05.395Z,10.73
2022-10-16T22:47:06.720Z,11.90
2022-10-16T22:52:07.806Z,10.03
2022-10-16T22:57:08.872Z,12.20
2022-10-16T23:02:09.930Z,10.30
2022-10-16T23:07:11.149Z,13.03
2022-10-16T23:12:12.354Z,11.43
2022-10-16T23:17:13.499Z,9.77
2022-10-16T23:22:14.617Z,10.70
2022-10-16T23:27:15.939Z,10.60
2022-10-16T23:32:17.060Z,13.03
2022-10-16T23:42:24.421Z,13.67
2022-10-16T23:47:25.867Z,11.13
2022-10-16T23:52:27.277Z,11.77
2022-10-16T23:57:28.603Z,10.47
